Time;durP1;ratioP1;P1;durP2;ratioP2;P2;SDS_P1;SDS_P2;PMS_P1;PMS_P2;Temp;Humidity;BMP_temperature;BMP_pressure;BME280_temperature;BME280_humidity;BME280_pressure;Samples;Min_cycle;Max_cycle;Signal;HPM_P1;HPM_P2
2023/05/08 00:00:13;;;;;;;1.00;1.00;;;;;;;11.76;79.42;97298.41;5005196;28;20065;-67
2023/05/08 00:02:41;;;;;;;0.90;0.90;;;;;;;11.62;79.66;97295.31;5004391;28;20441;-68
2023/05/08 00:05:08;;;;;;;0.90;0.90;;;;;;;11.45;80.49;97290.28;5004798;28;20057;-67
2023/05/08 00:07:36;;;;;;;0.80;0.80;;;;;;;10.90;80.10;97174.44;5005242;28;20054;-68
2023/05/08 00:10:04;;;;;;;0.80;0.80;;;;;;;11.39;80.29;97353.59;5005090;28;20053;-66
2023/05/08 00:12:31;;;;;;;0.80;0.80;;;;;;;10.99;81.02;97239.53;5005426;28;20046;-66
2023/05/08 00:14:58;;;;;;;0.80;0.80;;;;;;;11.24;81.00;97273.28;5004964;28;20049;-67
2023/05/08 00:17:25;;;;;;;0.90;0.90;;;;;;;11.35;80.70;97274.28;5004735;28;20062;-67
2023/05/08 00:19:52;;;;;;;0.90;0.90;;;;;;;11.21;80.79;97268.44;5005048;28;20443;-67
2023/05/08 00:22:19;;;;;;;0.80;0.80;;;;;;;11.09;80.57;97254.78;5004873;28;20078;-68
2023/05/08 00:24:46;;;;;;;0.90;0.90;;;;;;;11.01;81.14;97275.22;5004807;28;20050;-67
2023/05/08 00:27:12;;;;;;;0.80;0.80;;;;;;;10.92;82.01;97266.34;5004286;28;20591;-67
2023/05/08 00:29:39;;;;;;;0.80;0.80;;;;;;;10.96;81.81;97267.19;5003562;28;20045;-67
2023/05/08 00:32:06;;;;;;;0.90;0.90;;;;;;;10.78;82.90;97271.59;5004443;28;20119;-67
2023/05/08 00:34:34;;;;;;;0.80;0.80;;;;;;;10.65;83.17;97266.19;5004896;28;20046;-68
2023/05/08 00:37:01;;;;;;;0.80;0.80;;;;;;;10.70;82.97;97260.38;5004911;28;20046;-66
2023/05/08 00:39:28;;;;;;;0.80;0.80;;;;;;;10.68;83.88;97257.16;5004335;28;20501;-68
2023/05/08 00:41:55;;;;;;;0.80;0.80;;;;;;;10.46;84.89;97277.28;5004650;28;20475;-67
2023/05/08 00:44:21;;;;;;;0.80;0.80;;;;;;;10.39;85.03;97260.53;5004614;28;20493;-68
2023/05/08 00:46:48;;;;;;;0.80;0.80;;;;;;;10.41;84.19;97236.06;5019523;28;20057;-67
2023/05/08 00:49:15;;;;;;;0.90;0.90;;;;;;;10.61;83.63;97264.53;5004496;28;20060;-68
2023/05/08 00:51:45;;;;;;;0.80;0.80;;;;;;;10.72;82.92;97262.00;5004688;28;20050;-67
2023/05/08 00:54:12;;;;;;;0.80;0.80;;;;;;;10.30;83.23;97218.41;5004817;28;20139;-68
2023/05/08 00:56:39;;;;;;;0.90;0.90;;;;;;;10.11;83.31;97210.09;5004832;28;20576;-67
2023/05/08 00:59:10;;;;;;;0.80;0.80;;;;;;;10.58;82.89;97265.25;5003061;28;20520;-66
2023/05/08 01:01:37;;;;;;;0.80;0.80;;;;;;;9.72;82.34;97130.16;5003339;28;20452;-68
2023/05/08 01:04:04;;;;;;;0.90;0.90;;;;;;;10.63;81.76;97264.97;5004455;28;20061;-67
2023/05/08 01:06:32;;;;;;;0.80;0.80;;;;;;;10.51;82.15;97267.91;5004486;28;20119;-66
2023/05/08 01:08:59;;;;;;;0.80;0.80;;;;;;;10.51;82.27;97271.47;5003505;28;20154;-66
2023/05/08 01:11:54;;;;;;;0.73;0.73;;;;;;;10.46;82.25;97266.19;5004399;28;20495;-66
2023/05/08 01:14:57;;;;;;;0.80;0.80;;;;;;;10.16;83.40;97267.91;5004437;28;20478;-67
2023/05/08 01:17:40;;;;;;;0.75;0.75;;;;;;;10.10;84.65;97274.91;5007139;28;20516;-68
2023/05/08 01:20:35;;;;;;;0.80;0.80;;;;;;;10.05;85.51;97264.09;5006941;28;20460;-67
2023/05/08 01:23:04;;;;;;;0.80;0.80;;;;;;;10.03;85.44;97268.38;5008223;28;20131;-67
2023/05/08 01:26:00;;;;;;;0.80;0.80;;;;;;;10.11;85.25;97278.50;5008117;28;20501;-66
2023/05/08 01:28:49;;;;;;;0.80;0.80;;;;;;;9.93;85.81;97269.75;5021723;28;20049;-67
2023/05/08 01:31:28;;;;;;;0.80;0.80;;;;;;;9.96;86.06;97273.75;5012723;28;20508;-67
2023/05/08 01:34:18;;;;;;;0.80;0.80;;;;;;;10.06;84.99;97279.53;5008154;28;20058;-66
2023/05/08 01:37:01;;;;;;;0.80;0.80;;;;;;;10.18;84.80;97282.22;5008041;28;20050;-67
2023/05/08 01:39:40;;;;;;;0.80;0.80;;;;;;;10.21;83.73;97273.19;5008201;28;20492;-66
2023/05/08 01:42:44;;;;;;;0.70;0.70;;;;;;;10.18;84.42;97275.91;5006368;28;20082;-68
2023/05/08 01:45:25;;;;;;;0.70;0.70;;;;;;;10.10;84.19;97268.59;5009743;28;20046;-67
2023/05/08 01:48:05;;;;;;;0.80;0.80;;;;;;;10.19;83.54;97270.00;5007655;28;20069;-66
2023/05/08 01:50:39;;;;;;;0.80;0.80;;;;;;;9.75;82.19;97210.47;5008115;28;20065;-67
2023/05/08 01:53:18;;;;;;;0.70;0.70;;;;;;;10.13;82.30;97263.09;5006265;28;20517;-68
2023/05/08 01:55:47;;;;;;;0.80;0.80;;;;;;;9.95;82.89;97272.16;5007969;28;20085;-67
2023/05/08 01:58:15;;;;;;;0.80;0.80;;;;;;;10.09;82.84;97269.75;5007379;28;20065;-67
2023/05/08 02:00:44;;;;;;;0.70;0.70;;;;;;;9.98;83.95;97266.72;5005539;28;20100;-67
2023/05/08 02:03:13;;;;;;;0.80;0.80;;;;;;;9.97;84.49;97265.13;5006028;28;20050;-66
2023/05/08 02:05:41;;;;;;;0.73;0.73;;;;;;;9.49;84.59;97199.19;5006152;28;20056;-67
2023/05/08 02:08:11;;;;;;;0.70;0.70;;;;;;;9.32;84.65;97163.63;5005879;28;20072;-67
2023/05/08 02:10:40;;;;;;;0.70;0.70;;;;;;;10.07;83.89;97264.56;5007469;28;20079;-66
2023/05/08 02:13:10;;;;;;;0.80;0.80;;;;;;;9.44;83.23;97152.44;5007235;28;20560;-66
2023/05/08 02:15:38;;;;;;;0.80;0.80;;;;;;;10.24;83.20;97264.16;5006144;28;20050;-66
2023/05/08 02:18:07;;;;;;;0.80;0.80;;;;;;;10.39;82.53;97271.59;5006922;28;20483;-67
2023/05/08 02:20:35;;;;;;;0.80;0.80;;;;;;;10.26;82.92;97278.44;5007287;28;20077;-67
2023/05/08 02:23:02;;;;;;;0.80;0.80;;;;;;;10.17;81.71;97230.78;5007160;28;20073;-66
2023/05/08 02:25:30;;;;;;;0.80;0.80;;;;;;;10.36;81.73;97263.22;5005984;28;20058;-67
2023/05/08 02:27:57;;;;;;;0.80;0.80;;;;;;;10.29;81.43;97266.63;5004735;28;20057;-67
2023/05/08 02:30:25;;;;;;;0.85;0.85;;;;;;;10.41;81.15;97251.84;5006881;28;20104;-67
2023/05/08 02:32:54;;;;;;;0.90;0.90;;;;;;;10.43;81.20;97272.47;5007068;28;20196;-68
2023/05/08 02:35:26;;;;;;;0.80;0.80;;;;;;;10.53;80.53;97254.47;5006757;28;20050;-68
2023/05/08 02:37:54;;;;;;;0.80;0.80;;;;;;;10.44;80.94;97234.50;5005638;28;20046;-68
2023/05/08 02:40:25;;;;;;;0.80;0.80;;;;;;;10.54;81.57;97248.56;5004943;28;20058;-65
2023/05/08 02:42:52;;;;;;;0.90;0.90;;;;;;;10.46;81.32;97249.59;5005488;28;20413;-68
2023/05/08 02:45:19;;;;;;;0.80;0.80;;;;;;;10.08;81.75;97210.84;5003912;28;20085;-66
2023/05/08 02:47:57;;;;;;;0.80;0.80;;;;;;;10.41;81.41;97241.59;5005229;28;20057;-68
2023/05/08 02:50:34;;;;;;;0.73;0.73;;;;;;;9.89;81.40;97169.28;5003972;28;20550;-67
2023/05/08 02:53:08;;;;;;;0.80;0.80;;;;;;;10.31;81.12;97242.16;5005361;28;20145;-67
2023/05/08 02:55:50;;;;;;;0.80;0.80;;;;;;;10.10;81.40;97230.63;5004134;28;20058;-68
2023/05/08 02:58:33;;;;;;;0.80;0.80;;;;;;;9.88;82.34;97239.59;5006815;28;20061;-67
2023/05/08 03:01:15;;;;;;;0.80;0.80;;;;;;;9.99;82.26;97246.16;5006596;28;20520;-67
2023/05/08 03:03:48;;;;;;;0.80;0.80;;;;;;;9.65;82.39;97208.25;5005127;28;20061;-67
2023/05/08 03:06:20;;;;;;;0.80;0.80;;;;;;;9.40;82.66;97184.75;5006900;28;20557;-67
2023/05/08 03:08:50;;;;;;;0.80;0.80;;;;;;;9.78;82.24;97206.97;5006247;28;20053;-66
2023/05/08 03:11:21;;;;;;;0.85;0.85;;;;;;;9.91;83.17;97233.31;5004963;28;20081;-65
2023/05/08 03:13:50;;;;;;;0.70;0.70;;;;;;;9.47;83.82;97198.72;5005964;28;20058;-66
2023/05/08 03:16:21;;;;;;;0.75;0.75;;;;;;;9.88;82.90;97231.28;5004876;28;20050;-67
2023/05/08 03:18:51;;;;;;;0.77;0.77;;;;;;;10.13;81.71;97246.50;5005516;28;20575;-66
2023/05/08 03:21:19;;;;;;;0.80;0.80;;;;;;;10.17;81.60;97260.44;5004567;28;20050;-67
2023/05/08 03:23:48;;;;;;;0.80;0.80;;;;;;;9.96;82.43;97257.16;5005735;28;20496;-66
2023/05/08 03:26:18;;;;;;;0.70;0.70;;;;;;;9.74;82.11;97217.13;5005835;28;20046;-66
2023/05/08 03:28:49;;;;;;;0.80;0.80;;;;;;;10.18;81.12;97265.59;5005537;28;20574;-67
2023/05/08 03:31:21;;;;;;;0.80;0.80;;;;;;;10.08;81.78;97259.84;5005992;28;20569;-66
2023/05/08 03:33:51;;;;;;;0.70;0.70;;;;;;;10.16;81.62;97256.84;5004334;28;20494;-65
2023/05/08 03:36:18;;;;;;;0.82;0.82;;;;;;;10.14;81.18;97264.72;5006345;28;20081;-67
2023/05/08 03:38:45;;;;;;;0.80;0.80;;;;;;;10.17;81.66;97257.66;5003580;28;20058;-66
2023/05/08 03:41:12;;;;;;;0.70;0.70;;;;;;;10.23;81.95;97257.00;5005786;28;20493;-66
2023/05/08 03:43:40;;;;;;;0.80;0.80;;;;;;;10.07;82.12;97236.06;5005323;28;20145;-67
2023/05/08 03:46:07;;;;;;;0.80;0.80;;;;;;;9.95;82.11;97205.75;5005688;28;20132;-67
2023/05/08 03:48:36;;;;;;;0.90;0.90;;;;;;;10.39;81.46;97255.00;5005555;28;20061;-66
2023/05/08 03:51:03;;;;;;;0.80;0.80;;;;;;;10.51;80.50;97259.59;5005263;28;20115;-67
2023/05/08 03:53:32;;;;;;;0.80;0.80;;;;;;;10.40;80.33;97261.34;5005888;28;20084;-67
2023/05/08 03:56:00;;;;;;;0.80;0.80;;;;;;;10.32;80.88;97274.22;5005931;28;20065;-66
2023/05/08 03:58:33;;;;;;;0.85;0.85;;;;;;;10.43;80.83;97266.16;5004983;28;20500;-67
2023/05/08 04:01:10;;;;;;;0.90;0.90;;;;;;;10.41;80.58;97263.75;5003736;28;20065;-67
2023/05/08 04:03:48;;;;;;;0.80;0.80;;;;;;;10.48;80.77;97258.34;5005320;28;20054;-67
2023/05/08 04:06:56;;;;;;;0.80;0.80;;;;;;;10.48;79.98;97244.50;5005354;28;20139;-67
2023/05/08 04:09:33;;;;;;;0.80;0.80;;;;;;;10.80;78.85;97263.72;5003558;28;20058;-69
2023/05/08 04:12:04;;;;;;;0.80;0.80;;;;;;;11.04;78.13;97252.28;4985960;28;20058;-65
2023/05/08 04:14:36;;;;;;;0.90;0.90;;;;;;;10.76;78.31;97229.59;4985417;28;20536;-67
2023/05/08 04:17:07;;;;;;;0.90;0.90;;;;;;;11.12;77.77;97254.03;4985234;28;20101;-66
2023/05/08 04:19:38;;;;;;;0.90;0.90;;;;;;;11.00;77.36;97196.00;4985264;28;20066;-68
2023/05/08 04:22:06;;;;;;;0.90;0.90;;;;;;;11.49;76.76;97264.19;4985249;28;20054;-66
2023/05/08 04:24:39;;;;;;;0.90;0.90;;;;;;;11.60;77.25;97251.31;4983767;28;20418;-66
2023/05/08 04:27:08;;;;;;;1.00;1.00;;;;;;;11.93;75.18;97259.00;4985228;28;20088;-67
2023/05/08 04:29:35;;;;;;;1.00;1.00;;;;;;;11.95;75.27;97256.63;4985141;28;20073;-67
2023/05/08 04:32:04;;;;;;;0.90;0.90;;;;;;;12.11;74.47;97246.16;4983867;28;20149;-67
2023/05/08 04:34:31;;;;;;;0.90;0.90;;;;;;;12.33;73.91;97253.63;4985220;28;20056;-67
2023/05/08 04:36:58;;;;;;;1.00;1.00;;;;;;;12.21;73.13;97251.09;4985388;28;20084;-65
2023/05/08 04:39:24;;;;;;;0.98;0.98;;;;;;;12.00;73.51;97189.69;4984699;28;20050;-67
2023/05/08 04:41:53;;;;;;;1.00;1.00;;;;;;;12.66;71.92;97250.88;4985315;28;20505;-66
2023/05/08 04:44:20;;;;;;;1.10;1.10;;;;;;;12.81;71.17;97241.53;4984597;28;20528;-66
2023/05/08 04:46:48;;;;;;;1.00;1.00;;;;;;;12.85;70.46;97242.34;4985497;28;20428;-67
2023/05/08 04:49:15;;;;;;;1.08;1.08;;;;;;;13.00;70.84;97244.16;4984970;28;20058;-68
2023/05/08 04:51:42;;;;;;;1.05;1.05;;;;;;;13.16;69.94;97243.91;4999304;28;20092;-68
2023/05/08 04:54:08;;;;;;;1.10;1.10;;;;;;;13.33;69.89;97241.31;5000328;28;20085;-67
2023/05/08 04:56:35;;;;;;;1.10;1.10;;;;;;;13.62;68.63;97234.78;4983473;28;20085;-66
2023/05/08 04:59:02;;;;;;;1.10;1.10;;;;;;;13.66;68.43;97235.63;4984573;28;20164;-66
2023/05/08 05:01:28;;;;;;;1.20;1.20;;;;;;;13.72;68.30;97230.50;4999156;28;20436;-68
2023/05/08 05:03:55;;;;;;;1.08;1.08;;;;;;;13.90;67.95;97237.00;4984645;28;20070;-66
2023/05/08 05:06:22;;;;;;;1.10;1.10;;;;;;;13.81;68.53;97233.75;5000529;28;20104;-67
2023/05/08 05:08:48;;;;;;;1.30;1.30;;;;;;;14.06;67.18;97239.50;5004491;28;20112;-67
2023/05/08 05:11:15;;;;;;;1.17;1.17;;;;;;;14.23;66.68;97247.16;5003889;28;20053;-67
2023/05/08 05:13:41;;;;;;;1.20;1.20;;;;;;;14.40;66.61;97233.34;5004433;28;20054;-67
2023/05/08 05:16:08;;;;;;;1.20;1.20;;;;;;;14.56;65.69;97230.25;5002646;28;20065;-66
2023/05/08 05:18:35;;;;;;;1.40;1.40;;;;;;;14.66;64.46;97226.72;5003880;28;20045;-67
2023/05/08 05:21:02;;;;;;;1.30;1.30;;;;;;;14.78;63.65;97229.94;5002612;28;20054;-67
2023/05/08 05:23:29;;;;;;;1.40;1.40;;;;;;;14.91;63.05;97230.38;5003968;28;20053;-67
2023/05/08 05:25:55;;;;;;;1.30;1.30;;;;;;;15.07;63.29;97228.03;5004267;28;20141;-67
2023/05/08 05:28:22;;;;;;;1.20;1.20;;;;;;;15.02;62.71;97192.97;5003865;28;20501;-68
2023/05/08 05:30:49;;;;;;;1.33;1.33;;;;;;;15.36;61.01;97224.13;5004160;28;20104;-66
2023/05/08 05:33:15;;;;;;;1.50;1.50;;;;;;;15.30;60.58;97224.91;5004138;28;20105;-67
2023/05/08 05:35:42;;;;;;;1.38;1.38;;;;;;;15.42;61.12;97221.75;5002183;28;20104;-67
2023/05/08 05:38:09;;;;;;;1.30;1.30;;;;;;;15.80;59.55;97216.19;5003895;28;20072;-66
2023/05/08 05:40:35;;;;;;;1.30;1.30;;;;;;;16.01;58.49;97204.19;5002108;28;20556;-66
2023/05/08 05:43:02;;;;;;;1.40;1.40;;;;;;;16.17;57.05;97212.94;5002569;28;20049;-67
2023/05/08 05:45:29;;;;;;;1.50;1.50;;;;;;;16.34;55.04;97212.88;5003374;28;20128;-68
2023/05/08 05:47:58;;;;;;;1.70;1.70;;;;;;;16.36;54.88;97204.88;4995637;28;20054;-67
2023/05/08 05:50:26;;;;;;;1.60;1.60;;;;;;;16.88;55.46;97214.31;5003654;28;20092;-66
2023/05/08 05:52:53;;;;;;;1.52;1.52;;;;;;;17.05;56.55;97201.41;5004163;28;20936;-67
2023/05/08 05:55:21;;;;;;;1.70;1.70;;;;;;;17.07;56.20;97165.44;5003477;28;20049;-69
2023/05/08 05:57:48;;;;;;;1.92;1.92;;;;;;;17.70;55.25;97193.00;5004173;28;20068;-65
2023/05/08 06:00:16;;;;;;;1.98;1.98;;;;;;;17.85;54.13;97200.06;5001975;28;20123;-68
2023/05/08 06:02:43;;;;;;;1.80;1.80;;;;;;;17.89;54.76;97192.41;5005028;28;20112;-68
2023/05/08 06:05:09;;;;;;;2.00;2.00;;;;;;;17.46;54.50;97115.56;5024226;28;20076;-68
2023/05/08 06:07:37;;;;;;;1.90;1.90;;;;;;;17.92;54.84;97171.97;5026439;28;20139;-67
2023/05/08 06:10:04;;;;;;;1.98;1.98;;;;;;;17.98;51.76;97192.72;5026627;28;20046;-67
2023/05/08 06:12:31;;;;;;;1.80;1.80;;;;;;;18.07;51.71;97191.03;5026827;28;20498;-67
2023/05/08 06:14:57;;;;;;;2.30;2.30;;;;;;;18.41;50.70;97188.31;5026822;28;20523;-65
2023/05/08 06:17:24;;;;;;;2.15;2.15;;;;;;;18.63;48.59;97189.66;5026175;28;20508;-68
2023/05/08 06:19:54;;;;;;;1.73;1.73;;;;;;;18.87;47.09;97187.75;5026689;28;20061;-66
2023/05/08 06:22:23;;;;;;;1.80;1.80;;;;;;;18.38;47.38;97186.34;5026648;28;20463;-68
2023/05/08 06:24:53;;;;;;;1.98;1.98;;;;;;;18.50;47.77;97182.97;5026739;28;20515;-66
2023/05/08 06:27:23;;;;;;;2.10;2.10;;;;;;;18.87;47.25;97194.16;5025179;28;20050;-67
2023/05/08 06:29:51;;;;;;;2.05;2.05;;;;;;;19.24;47.13;97191.22;5026628;28;20049;-64
2023/05/08 06:32:19;;;;;;;2.30;2.30;;;;;;;18.67;46.55;97086.56;5024829;28;20057;-68
2023/05/08 06:34:47;;;;;;;2.35;2.30;;;;;;;19.54;45.92;97193.19;5026581;28;20046;-66
2023/05/08 06:37:14;;;;;;;1.63;1.63;;;;;;;18.37;47.01;97108.97;5026269;28;20064;-65
2023/05/08 06:39:41;;;;;;;1.98;1.98;;;;;;;18.80;47.85;97188.63;5026605;28;20052;-68
2023/05/08 06:42:07;;;;;;;2.42;2.33;;;;;;;18.71;47.77;97179.13;5026603;28;20163;-68
2023/05/08 06:44:34;;;;;;;2.20;2.20;;;;;;;18.85;47.67;97179.75;5026556;28;20056;-68
2023/05/08 06:47:01;;;;;;;2.00;2.00;;;;;;;18.65;48.68;97173.16;5026190;28;20056;-68
2023/05/08 06:49:28;;;;;;;2.03;2.03;;;;;;;17.40;49.98;97162.75;5026247;28;20274;-66
2023/05/08 06:51:55;;;;;;;1.95;1.95;;;;;;;17.89;50.03;97167.19;5025831;28;20140;-67
2023/05/08 06:54:23;;;;;;;1.70;1.70;;;;;;;17.80;49.05;97063.19;5026166;28;20132;-66
2023/05/08 06:56:52;;;;;;;1.90;1.90;;;;;;;18.79;47.93;97170.19;5026501;28;20061;-67
2023/05/08 06:59:20;;;;;;;2.00;2.00;;;;;;;18.26;49.10;97097.09;5026375;28;20424;-68
2023/05/08 07:01:47;;;;;;;2.20;2.20;;;;;;;19.27;47.29;97165.09;5026071;28;20080;-67
2023/05/08 07:04:13;;;;;;;2.08;2.08;;;;;;;19.80;45.72;97161.47;5025828;28;20558;-67
2023/05/08 07:06:40;;;;;;;1.77;1.77;;;;;;;19.48;46.40;97153.56;5021189;28;20065;-67
2023/05/08 07:09:07;;;;;;;2.20;2.20;;;;;;;19.25;46.85;97161.91;5006349;28;20513;-66
2023/05/08 07:11:33;;;;;;;2.20;2.20;;;;;;;19.32;46.54;97146.97;5006379;28;20733;-68
2023/05/08 07:14:00;;;;;;;1.90;1.90;;;;;;;18.94;47.67;97160.34;5004256;28;20046;-67
2023/05/08 07:16:27;;;;;;;2.13;2.13;;;;;;;18.96;46.55;97101.78;5006208;28;20050;-68
2023/05/08 07:18:53;;;;;;;2.03;2.03;;;;;;;18.87;46.98;97053.81;5005848;28;20050;-68
2023/05/08 07:21:20;;;;;;;2.20;2.20;;;;;;;19.53;46.36;97144.66;5005898;28;20139;-67
2023/05/08 07:23:50;;;;;;;2.10;2.10;;;;;;;19.20;47.28;97145.56;5004827;28;20050;-67
2023/05/08 07:26:17;;;;;;;2.08;2.08;;;;;;;19.41;46.45;97103.09;5005923;28;20145;-66
2023/05/08 07:28:44;;;;;;;2.00;2.00;;;;;;;20.03;45.82;97126.91;5005758;28;20050;-69
2023/05/08 07:31:10;;;;;;;2.15;2.15;;;;;;;20.49;45.31;97135.25;5005885;28;20081;-68
2023/05/08 07:33:37;;;;;;;2.10;2.10;;;;;;;20.63;44.75;97141.38;5005908;28;20141;-68
2023/05/08 07:36:04;;;;;;;2.60;2.50;;;;;;;20.55;45.35;97144.81;5006261;28;20053;-68
2023/05/08 07:38:31;;;;;;;2.00;2.00;;;;;;;20.14;45.41;97085.34;5005562;28;20598;-68
2023/05/08 07:40:59;;;;;;;2.20;2.20;;;;;;;20.53;46.05;97136.00;5005847;28;20085;-69
2023/05/08 07:43:26;;;;;;;2.13;2.13;;;;;;;20.39;45.11;97108.13;5005208;28;20053;-68
2023/05/08 07:45:53;;;;;;;2.65;2.55;;;;;;;20.33;45.62;97135.97;5005839;28;20049;-68
2023/05/08 07:48:19;;;;;;;2.80;2.70;;;;;;;20.36;45.60;97125.91;5004106;28;20081;-69
2023/05/08 07:50:48;;;;;;;2.55;2.45;;;;;;;19.92;46.80;97126.28;5005506;28;20093;-68
2023/05/08 07:53:15;;;;;;;2.38;2.38;;;;;;;20.19;46.05;97121.38;5005302;28;20511;-68
2023/05/08 07:55:42;;;;;;;2.00;2.00;;;;;;;20.03;46.94;97135.34;5004965;28;20504;-70
2023/05/08 07:58:08;;;;;;;2.33;2.30;;;;;;;20.36;46.60;97103.38;5003361;28;20149;-67
2023/05/08 08:00:35;;;;;;;2.30;2.30;;;;;;;20.71;45.76;97125.13;5005018;28;20089;-69
2023/05/08 08:03:02;;;;;;;2.15;2.15;;;;;;;20.42;46.29;97112.91;5004946;28;20129;-67
2023/05/08 08:05:29;;;;;;;2.28;2.28;;;;;;;20.00;46.08;97077.13;5011967;28;20155;-69
2023/05/08 08:07:56;;;;;;;2.47;2.40;;;;;;;20.22;47.07;97126.16;5023637;28;20065;-68
2023/05/08 08:10:22;;;;;;;2.30;2.30;;;;;;;20.45;46.27;97101.56;5024684;28;20056;-69
2023/05/08 08:12:49;;;;;;;2.20;2.20;;;;;;;20.89;45.78;97119.91;5024639;28;20053;-68
2023/05/08 08:15:16;;;;;;;2.10;2.10;;;;;;;20.98;45.86;97111.69;5024928;28;20108;-68
2023/05/08 08:17:43;;;;;;;2.20;2.20;;;;;;;21.17;44.98;97096.75;5024452;28;20049;-72
2023/05/08 08:20:10;;;;;;;2.70;2.60;;;;;;;21.60;44.49;97114.22;5024999;28;20056;-71
2023/05/08 08:22:37;;;;;;;2.20;2.20;;;;;;;21.28;44.23;97079.59;5024395;28;20081;-71
2023/05/08 08:25:05;;;;;;;2.17;2.17;;;;;;;21.29;44.70;97113.00;5024747;28;20045;-71
2023/05/08 08:27:31;;;;;;;2.80;2.70;;;;;;;21.37;45.17;97100.28;5024695;28;20099;-72
2023/05/08 08:29:58;;;;;;;2.53;2.42;;;;;;;21.36;45.46;97109.19;5025542;28;20178;-71
2023/05/08 08:32:41;;;;;;;2.95;2.85;;;;;;;20.82;45.28;96965.19;5023976;28;20088;-72
2023/05/08 08:35:08;;;;;;;2.60;2.50;;;;;;;21.11;45.64;97111.81;5025603;28;20129;-73
2023/05/08 08:37:34;;;;;;;2.70;2.60;;;;;;;21.73;44.87;97101.00;5025163;28;20068;-71
2023/05/08 08:40:02;;;;;;;2.42;2.40;;;;;;;21.75;44.43;97097.75;5026512;28;20136;-71
2023/05/08 08:42:30;;;;;;;2.10;2.10;;;;;;;21.10;45.69;97096.94;5026281;28;20162;-73
2023/05/08 08:44:57;;;;;;;2.35;2.30;;;;;;;21.60;45.19;97086.03;5026346;28;20528;-70
2023/05/08 08:47:28;;;;;;;2.20;2.20;;;;;;;21.69;44.66;97089.00;5026176;28;20455;-71
2023/05/08 08:49:59;;;;;;;2.13;2.13;;;;;;;21.98;44.98;97089.88;5024080;28;20083;-70
2023/05/08 08:52:36;;;;;;;2.60;2.50;;;;;;;22.03;43.95;97092.19;5034622;28;20061;-71
2023/05/08 08:55:08;;;;;;;2.58;2.47;;;;;;;22.07;45.15;97087.22;5034960;28;20455;-71
2023/05/08 08:57:38;;;;;;;2.63;2.53;;;;;;;22.44;43.52;97078.09;5034030;28;20065;-71
2023/05/08 09:00:06;;;;;;;2.30;2.30;;;;;;;22.38;44.52;97085.50;5031661;28;20061;-71
2023/05/08 09:02:34;;;;;;;2.28;2.28;;;;;;;22.48;44.46;97081.59;5032948;28;20049;-72
2023/05/08 09:05:02;;;;;;;2.50;2.40;;;;;;;21.92;44.73;97069.09;5035219;28;20053;-70
2023/05/08 09:07:29;;;;;;;2.53;2.42;;;;;;;22.77;43.95;97077.97;5030417;28;20133;-69
2023/05/08 09:09:56;;;;;;;2.83;2.72;;;;;;;22.85;44.20;97074.47;5025182;28;20123;-71
2023/05/08 09:12:23;;;;;;;2.80;2.70;;;;;;;22.59;44.33;97075.66;5024466;28;20053;-70
2023/05/08 09:14:50;;;;;;;2.70;2.60;;;;;;;22.17;44.44;97040.19;5024108;28;20057;-71
2023/05/08 09:17:17;;;;;;;2.47;2.38;;;;;;;22.19;45.43;97009.50;5022756;28;20064;-71
2023/05/08 09:19:44;;;;;;;2.65;2.55;;;;;;;23.20;43.92;97058.44;5022547;28;20053;-71
2023/05/08 09:22:11;;;;;;;2.65;2.55;;;;;;;23.68;43.27;97041.06;5024321;28;20072;-69
2023/05/08 09:24:57;;;;;;;3.03;2.92;;;;;;;24.16;42.83;97049.09;5024054;28;20060;-73
2023/05/08 09:27:28;;;;;;;3.10;3.00;;;;;;;22.64;44.72;97034.78;5022851;28;20446;-71
2023/05/08 09:30:03;;;;;;;2.75;2.65;;;;;;;23.40;43.50;97025.06;5024109;28;20114;-68
2023/05/08 09:32:31;;;;;;;2.70;2.60;;;;;;;24.11;42.77;97029.84;5022850;28;20088;-72
2023/05/08 09:34:59;;;;;;;2.70;2.60;;;;;;;22.85;44.44;97039.78;5023529;28;20119;-72
2023/05/08 09:37:26;;;;;;;2.90;2.80;;;;;;;23.67;43.06;97028.19;5023764;28;20053;-70
2023/05/08 09:39:54;;;;;;;2.72;2.63;;;;;;;23.95;42.08;97010.19;5027276;28;20064;-72
2023/05/08 09:42:22;;;;;;;3.00;2.90;;;;;;;24.24;41.94;97022.09;5027577;28;20138;-72
2023/05/08 09:44:51;;;;;;;2.75;2.65;;;;;;;22.96;44.62;97017.63;5027332;28;20129;-68
2023/05/08 09:47:22;;;;;;;2.60;2.50;;;;;;;22.24;45.12;96978.69;5027337;28;20084;-70
2023/05/08 09:49:58;;;;;;;2.50;2.40;;;;;;;22.93;44.38;97013.69;5026930;28;20096;-71
2023/05/08 09:52:26;;;;;;;2.75;2.65;;;;;;;23.26;44.19;97002.94;5027379;28;20440;-71
2023/05/08 09:55:09;;;;;;;2.95;2.85;;;;;;;24.33;43.10;96996.66;5027266;28;20072;-70
2023/05/08 09:57:38;;;;;;;2.83;2.72;;;;;;;23.97;42.80;96996.41;5027450;28;20066;-69
2023/05/08 10:00:07;;;;;;;2.90;2.80;;;;;;;24.58;41.16;96993.66;5026427;28;20065;-70
2023/05/08 10:02:35;;;;;;;3.00;2.90;;;;;;;24.90;41.08;96990.41;5026351;28;20064;-73
2023/05/08 10:05:24;;;;;;;2.95;2.85;;;;;;;24.77;41.88;96978.38;5027017;28;20483;-72
2023/05/08 10:07:52;;;;;;;3.20;3.10;;;;;;;24.36;42.79;96922.13;5027697;28;20061;-69
2023/05/08 10:10:25;;;;;;;3.10;3.00;;;;;;;24.91;41.92;96985.53;5027236;28;20090;-71
2023/05/08 10:12:54;;;;;;;3.33;3.22;;;;;;;24.88;40.33;96879.53;5027548;28;20107;-72
2023/05/08 10:15:24;;;;;;;3.50;3.40;;;;;;;25.71;39.68;96986.22;5024969;28;20049;-70
2023/05/08 10:18:01;;;;;;;3.33;3.22;;;;;;;25.12;40.49;96974.09;5027213;28;20115;-69
2023/05/08 10:20:30;;;;;;;3.75;3.65;;;;;;;25.27;40.04;96901.38;5025017;28;20520;-71
2023/05/08 10:22:57;;;;;;;3.63;3.53;;;;;;;25.41;39.94;96888.63;5026760;28;20045;-70
2023/05/08 10:25:24;;;;;;;3.60;3.50;;;;;;;25.96;39.81;96958.31;5026199;28;20050;-70
2023/05/08 10:27:58;;;;;;;3.15;3.05;;;;;;;26.82;38.70;96956.78;5026787;28;20046;-66
2023/05/08 10:30:25;;;;;;;;;;;;;;;27.28;38.13;96961.00;5026741;28;20090;-70
2023/05/08 10:32:57;;;;;;;3.80;3.70;;;;;;;27.61;36.84;96950.34;5026501;28;19925;-70
2023/05/08 10:35:25;;;;;;;3.40;3.30;;;;;;;28.02;35.90;96918.09;5026574;28;20077;-70
2023/05/08 10:37:55;;;;;;;4.28;4.18;;;;;;;28.80;34.86;96953.69;5025311;28;20049;-70
2023/05/08 10:40:22;;;;;;;3.53;3.42;;;;;;;26.24;34.41;96535.94;5026286;28;20053;-68
2023/05/08 10:42:50;;;;;;;4.28;4.18;;;;;;;28.66;34.65;96948.78;5025731;28;20057;-71
2023/05/08 10:45:17;;;;;;;3.72;3.63;;;;;;;28.37;35.29;96952.41;5023921;28;20085;-68
2023/05/08 10:48:03;;;;;;;4.22;4.13;;;;;;;27.73;36.34;96939.97;5025860;28;20088;-69
2023/05/08 10:50:41;;;;;;;4.40;4.30;;;;;;;27.01;37.27;96938.34;5024678;28;20057;-68
2023/05/08 10:53:15;;;;;;;3.63;3.53;;;;;;;26.41;38.98;96960.34;5024174;28;20133;-70
2023/05/08 10:55:46;;;;;;;3.50;3.40;;;;;;;25.90;39.28;96965.91;5025399;28;20046;-71
2023/05/08 10:58:22;;;;;;;3.53;3.42;;;;;;;25.65;40.37;96959.72;5026142;28;20488;-71
2023/05/08 11:00:51;;;;;;;3.70;3.60;;;;;;;25.36;41.17;96967.88;5025686;28;20061;-68
2023/05/08 11:03:19;;;;;;;3.53;3.42;;;;;;;24.73;42.15;96980.56;5024672;28;20057;-70
2023/05/08 11:05:58;;;;;;;3.15;3.05;;;;;;;23.91;45.23;96986.91;5026214;28;20467;-71
2023/05/08 11:08:27;;;;;;;3.03;2.92;;;;;;;22.59;50.44;96998.66;5025735;28;20053;-72
2023/05/08 11:11:00;;;;;;;2.35;2.28;;;;;;;21.40;59.38;96995.16;5025854;28;20057;-69
2023/05/08 11:13:39;;;;;;;;;;;;;;;20.79;61.96;97002.69;5024772;28;20513;-72
2023/05/08 11:16:06;;;;;;;1.90;1.90;;;;;;;19.58;65.27;96928.97;5025783;28;20293;-72
2023/05/08 11:18:33;;;;;;;2.17;2.17;;;;;;;19.68;68.36;97001.06;5025686;28;20079;-70
2023/05/08 11:21:20;;;;;;;2.20;2.20;;;;;;;19.54;69.38;96986.06;5024042;28;20107;-71
2023/05/08 11:23:56;;;;;;;2.10;2.10;;;;;;;19.29;71.52;96999.75;5024668;28;20161;-73
2023/05/08 11:26:39;;;;;;;1.98;1.98;;;;;;;19.08;71.77;96997.28;5026003;28;20542;-71
2023/05/08 11:29:16;;;;;;;1.92;1.92;;;;;;;18.97;75.93;96993.88;5026093;28;20061;-69
2023/05/08 11:31:50;;;;;;;2.20;2.20;;;;;;;18.98;76.44;97003.09;5025587;28;20530;-73
2023/05/08 11:34:41;;;;;;;2.00;2.00;;;;;;;19.00;79.66;96998.63;5024460;28;20056;-74
2023/05/08 11:37:32;;;;;;;1.75;1.75;;;;;;;18.97;79.17;96991.06;5024130;28;20060;-72
2023/05/08 11:40:37;;;;;;;1.83;1.83;;;;;;;19.01;80.79;96989.00;5023752;28;20053;-72
2023/05/08 11:43:23;;;;;;;1.90;1.90;;;;;;;19.16;78.22;96981.91;5025208;28;20057;-70
2023/05/08 11:45:51;;;;;;;2.00;2.00;;;;;;;19.08;76.34;96986.06;5025439;28;20110;-73
2023/05/08 11:48:18;;;;;;;2.00;2.00;;;;;;;19.30;78.18;96976.06;5025650;28;20162;-70